Terminal Aerodrome Forecast
Issued by NWS Shreveport, LA

Home | Current Version | Previous Version | Text Only | Print | Product List | Glossary On
Versions: 1 2 3 4 5 6 7 8 9 10 11 12 13
153
FTUS44 KSHV 291120
TAFMLU
TAF
KMLU 291120Z 2912/3012 12005KT P6SM OVC025
      TEMPO 2912/2916 5SM -SHRA BR OVC015
     FM291600 14007KT P6SM VCTS OVC020CB
     FM291900 16008KT P6SM VCTS OVC035CB
     FM300100 18007KT P6SM BKN045 BKN250
      TEMPO 3003/3006 OVC015
     FM300600 18006KT P6SM OVC015=

USA.gov is the U.S. government's official web portal to all federal, state and local government web resources and services.